Time;durP1;ratioP1;P1;durP2;ratioP2;P2;SDS_P1;SDS_P2;PMS_P1;PMS_P2;Temp;Humidity;BMP_temperature;BMP_pressure;BME280_temperature;BME280_humidity;BME280_pressure;Samples;Min_cycle;Max_cycle;Signal;HPM_P1;HPM_P2
2020/12/09 00:01:09;;;;;;;3.83;1.10;;;;;;;;;;5057063;28;20040;-50
2020/12/09 00:03:35;;;;;;;9.38;1.50;;;;;;;;;;5053488;28;20045;-51
2020/12/09 00:06:01;;;;;;;5.95;1.50;;;;;;;;;;5053588;28;20040;-50
2020/12/09 00:08:27;;;;;;;3.72;1.35;;;;;;;;;;5053041;28;20065;-56
2020/12/09 00:10:52;;;;;;;7.15;1.52;;;;;;;;;;5053917;28;20124;-51
2020/12/09 00:13:18;;;;;;;8.48;1.30;;;;;;;;;;5051979;28;20056;-54
2020/12/09 00:15:44;;;;;;;6.50;1.80;;;;;;;;;;5053442;28;20044;-56
2020/12/09 00:18:13;;;;;;;5.70;1.40;;;;;;;;;;5051831;28;20064;-56
2020/12/09 00:20:39;;;;;;;4.25;1.20;;;;;;;;;;5052501;28;20071;-56
2020/12/09 00:23:05;;;;;;;6.05;1.10;;;;;;;;;;5052929;28;20051;-57
2020/12/09 00:25:31;;;;;;;8.75;1.30;;;;;;;;;;5052652;28;20047;-55
2020/12/09 00:27:57;;;;;;;6.10;1.15;;;;;;;;;;5053294;28;20171;-56
2020/12/09 00:30:22;;;;;;;7.15;1.23;;;;;;;;;;5052053;28;20029;-56
2020/12/09 00:32:48;;;;;;;5.55;1.25;;;;;;;;;;5052994;28;20090;-51
2020/12/09 00:35:15;;;;;;;9.25;1.33;;;;;;;;;;5052595;28;20045;-51
2020/12/09 00:37:41;;;;;;;9.63;1.35;;;;;;;;;;5051329;28;20064;-53
2020/12/09 00:40:07;;;;;;;10.18;1.58;;;;;;;;;;5051110;28;20045;-53
2020/12/09 00:42:33;;;;;;;7.72;2.08;;;;;;;;;;5050735;28;20052;-55
2020/12/09 00:44:59;;;;;;;5.72;1.52;;;;;;;;;;5052139;28;20946;-52
2020/12/09 00:47:25;;;;;;;7.38;1.92;;;;;;;;;;5051865;28;20063;-53
2020/12/09 00:52:35;;;;;;;8.55;1.27;;;;;;;;;;5052394;28;20290;-55
2020/12/09 00:55:01;;;;;;;7.22;2.33;;;;;;;;;;5051307;28;20037;-54
2020/12/09 00:57:27;;;;;;;16.00;2.38;;;;;;;;;;5050899;28;20060;-52
2020/12/09 00:59:53;;;;;;;12.18;1.52;;;;;;;;;;5052269;28;20033;-54
2020/12/09 01:02:20;;;;;;;10.02;1.40;;;;;;;;;;5052248;28;20190;-54
2020/12/09 01:04:49;;;;;;;6.28;1.33;;;;;;;;;;5051261;28;20040;-54
2020/12/09 01:07:21;;;;;;;11.55;2.00;;;;;;;;;;5053101;28;20044;-54
2020/12/09 01:09:48;;;;;;;10.00;1.30;;;;;;;;;;5051435;28;20052;-57
2020/12/09 01:12:14;;;;;;;6.22;1.10;;;;;;;;;;5052280;28;20834;-53
2020/12/09 01:14:40;;;;;;;5.93;1.00;;;;;;;;;;5051743;28;20929;-53
2020/12/09 01:17:06;;;;;;;8.82;1.30;;;;;;;;;;5049686;28;20053;-55
2020/12/09 01:19:32;;;;;;;6.90;1.75;;;;;;;;;;5052457;28;20033;-56
2020/12/09 01:21:58;;;;;;;4.60;1.27;;;;;;;;;;5052828;28;20045;-52
2020/12/09 01:24:23;;;;;;;3.08;1.00;;;;;;;;;;5051947;28;20044;-53
2020/12/09 01:26:50;;;;;;;4.50;1.30;;;;;;;;;;5054180;28;20043;-54
2020/12/09 01:29:15;;;;;;;3.53;1.10;;;;;;;;;;5053530;28;20047;-53
2020/12/09 01:31:41;;;;;;;2.60;0.90;;;;;;;;;;5052057;28;20029;-53
2020/12/09 01:34:08;;;;;;;5.90;0.95;;;;;;;;;;5051322;28;20048;-54
2020/12/09 01:36:34;;;;;;;6.55;1.10;;;;;;;;;;5050612;28;20140;-55
2020/12/09 01:38:59;;;;;;;3.15;0.90;;;;;;;;;;5050809;28;20382;-55
2020/12/09 01:41:25;;;;;;;3.95;1.10;;;;;;;;;;5052229;28;20041;-52
2020/12/09 01:43:52;;;;;;;5.50;1.52;;;;;;;;;;5049791;28;20036;-54
2020/12/09 01:46:28;;;;;;;7.00;1.40;;;;;;;;;;5041150;28;20037;-55
2020/12/09 01:48:54;;;;;;;5.43;1.35;;;;;;;;;;5051617;28;20079;-54
2020/12/09 01:51:23;;;;;;;4.20;1.35;;;;;;;;;;5052085;28;20033;-53
2020/12/09 01:53:49;;;;;;;9.57;1.60;;;;;;;;;;5051075;28;20032;-55
2020/12/09 01:56:15;;;;;;;9.02;1.95;;;;;;;;;;5051632;28;20147;-54
2020/12/09 01:58:41;;;;;;;8.88;1.92;;;;;;;;;;5050905;28;20073;-53
2020/12/09 02:01:07;;;;;;;5.88;1.60;;;;;;;;;;5051241;28;20033;-50
2020/12/09 02:03:32;;;;;;;7.68;1.60;;;;;;;;;;5050998;28;20075;-52
2020/12/09 02:05:58;;;;;;;6.53;1.80;;;;;;;;;;5048872;28;20048;-53
2020/12/09 02:08:24;;;;;;;5.90;1.40;;;;;;;;;;5051750;28;20067;-56
2020/12/09 02:10:59;;;;;;;8.23;1.60;;;;;;;;;;5051599;28;20082;-55
2020/12/09 02:13:26;;;;;;;4.22;1.80;;;;;;;;;;5049693;28;20044;-55
2020/12/09 02:15:52;;;;;;;6.13;1.90;;;;;;;;;;5050642;28;20056;-54
2020/12/09 02:18:18;;;;;;;7.55;2.50;;;;;;;;;;5052281;28;20242;-54
2020/12/09 02:20:44;;;;;;;9.82;2.88;;;;;;;;;;5052363;28;20101;-55
2020/12/09 02:23:10;;;;;;;9.57;2.22;;;;;;;;;;5052453;28;20061;-54
2020/12/09 02:25:36;;;;;;;8.00;1.90;;;;;;;;;;5051225;28;20047;-55
2020/12/09 02:28:02;;;;;;;6.88;2.33;;;;;;;;;;5052350;28;20064;-55
2020/12/09 02:30:27;;;;;;;9.73;2.42;;;;;;;;;;5051535;28;20148;-52
2020/12/09 02:32:53;;;;;;;6.35;2.20;;;;;;;;;;5051588;28;20032;-53
2020/12/09 02:35:19;;;;;;;4.65;1.98;;;;;;;;;;5051702;28;20053;-54
2020/12/09 02:37:45;;;;;;;8.35;2.60;;;;;;;;;;5052245;28;20045;-54
2020/12/09 02:40:11;;;;;;;6.20;2.85;;;;;;;;;;5049686;28;20384;-54
2020/12/09 02:42:37;;;;;;;7.70;3.00;;;;;;;;;;5050063;28;21986;-54
2020/12/09 02:45:03;;;;;;;7.15;2.60;;;;;;;;;;5047864;28;20051;-54
2020/12/09 02:47:29;;;;;;;6.60;2.40;;;;;;;;;;5050129;28;20143;-55
2020/12/09 02:49:55;;;;;;;6.38;2.63;;;;;;;;;;5050374;28;20041;-50
2020/12/09 02:52:21;;;;;;;11.13;2.53;;;;;;;;;;5049161;28;20068;-50
2020/12/09 02:54:46;;;;;;;7.53;2.80;;;;;;;;;;5050097;28;20037;-53
2020/12/09 02:57:12;;;;;;;7.10;2.42;;;;;;;;;;5049011;28;20060;-54
2020/12/09 02:59:38;;;;;;;6.78;2.65;;;;;;;;;;5050241;28;20081;-53
2020/12/09 03:02:04;;;;;;;7.35;2.25;;;;;;;;;;5049899;28;20044;-52
2020/12/09 03:04:30;;;;;;;9.63;2.72;;;;;;;;;;5050026;28;20410;-54
2020/12/09 03:06:56;;;;;;;5.53;2.35;;;;;;;;;;5054749;28;20108;-53
2020/12/09 03:09:22;;;;;;;7.60;2.38;;;;;;;;;;5051974;28;20060;-52
2020/12/09 03:11:47;;;;;;;11.55;2.72;;;;;;;;;;5054472;28;20053;-53
2020/12/09 03:14:13;;;;;;;7.90;2.60;;;;;;;;;;5054659;28;20037;-53
2020/12/09 03:16:39;;;;;;;8.52;3.03;;;;;;;;;;5054334;28;20037;-55
2020/12/09 03:19:05;;;;;;;7.05;2.75;;;;;;;;;;5055232;28;20053;-52
2020/12/09 03:21:31;;;;;;;8.85;2.80;;;;;;;;;;5053578;28;20033;-51
2020/12/09 03:23:57;;;;;;;9.75;3.10;;;;;;;;;;5053885;28;20047;-50
2020/12/09 03:26:26;;;;;;;5.97;2.60;;;;;;;;;;5053006;28;20063;-56
2020/12/09 03:28:53;;;;;;;11.05;3.28;;;;;;;;;;5053162;28;20056;-53
2020/12/09 03:31:19;;;;;;;6.40;2.55;;;;;;;;;;5052446;28;20067;-55
2020/12/09 03:33:44;;;;;;;5.68;2.50;;;;;;;;;;5052466;28;20148;-52
2020/12/09 03:36:10;;;;;;;8.38;2.63;;;;;;;;;;5052293;28;20084;-54
2020/12/09 03:38:36;;;;;;;9.55;2.97;;;;;;;;;;5052665;28;20048;-56
2020/12/09 03:41:02;;;;;;;9.90;3.10;;;;;;;;;;5052773;28;20037;-51
2020/12/09 03:43:28;;;;;;;9.40;3.00;;;;;;;;;;5052118;28;20051;-55
2020/12/09 03:45:54;;;;;;;7.80;2.97;;;;;;;;;;5051558;28;20607;-53
2020/12/09 03:48:20;;;;;;;10.02;2.92;;;;;;;;;;5052182;28;20045;-55
2020/12/09 03:50:46;;;;;;;7.80;2.72;;;;;;;;;;5052739;28;20044;-55
2020/12/09 03:53:12;;;;;;;12.25;2.92;;;;;;;;;;5052556;28;20033;-55
2020/12/09 03:55:38;;;;;;;9.70;2.80;;;;;;;;;;5052071;28;20049;-53
2020/12/09 03:58:03;;;;;;;7.28;2.70;;;;;;;;;;5053509;28;20052;-53
2020/12/09 04:00:29;;;;;;;13.02;2.65;;;;;;;;;;5053001;28;20045;-56
2020/12/09 04:02:55;;;;;;;6.22;2.80;;;;;;;;;;5052660;28;20108;-55
2020/12/09 04:05:22;;;;;;;11.57;2.78;;;;;;;;;;5052102;28;20040;-53
2020/12/09 04:07:47;;;;;;;6.88;3.00;;;;;;;;;;5054222;28;20059;-54
2020/12/09 04:10:13;;;;;;;10.52;2.75;;;;;;;;;;5052684;28;20100;-57
2020/12/09 04:12:39;;;;;;;7.88;2.42;;;;;;;;;;5052294;28;20041;-57
2020/12/09 04:15:05;;;;;;;6.70;2.30;;;;;;;;;;5053502;28;20192;-55
2020/12/09 04:17:31;;;;;;;11.65;3.00;;;;;;;;;;5050876;28;20064;-56
2020/12/09 04:19:57;;;;;;;9.00;3.05;;;;;;;;;;5053250;28;20080;-55
2020/12/09 04:22:23;;;;;;;9.35;2.85;;;;;;;;;;5051871;28;20036;-54
2020/12/09 04:24:48;;;;;;;11.63;3.00;;;;;;;;;;5053201;28;20095;-55
2020/12/09 04:27:14;;;;;;;8.98;3.88;;;;;;;;;;5054126;28;20040;-55
2020/12/09 04:29:40;;;;;;;8.43;2.90;;;;;;;;;;5051900;28;20036;-55
2020/12/09 04:32:06;;;;;;;12.02;3.20;;;;;;;;;;5052687;28;20033;-56
2020/12/09 04:34:32;;;;;;;8.63;2.90;;;;;;;;;;5051633;28;20033;-57
2020/12/09 04:36:58;;;;;;;10.15;3.20;;;;;;;;;;5052802;28;22288;-55
2020/12/09 04:39:24;;;;;;;11.50;3.08;;;;;;;;;;5052235;28;20048;-52
2020/12/09 04:41:50;;;;;;;11.35;3.30;;;;;;;;;;5050221;28;20029;-54
2020/12/09 04:44:17;;;;;;;12.15;2.88;;;;;;;;;;5052288;28;20116;-52
2020/12/09 04:46:50;;;;;;;10.30;3.00;;;;;;;;;;5052643;28;20025;-54
2020/12/09 04:49:17;;;;;;;8.95;3.30;;;;;;;;;;5053639;28;20048;-56
2020/12/09 04:52:03;;;;;;;8.48;3.17;;;;;;;;;;5050487;28;20044;-55
2020/12/09 04:54:37;;;;;;;10.73;2.72;;;;;;;;;;5044263;28;20036;-54
2020/12/09 04:57:23;;;;;;;8.70;2.95;;;;;;;;;;5051751;28;20045;-55
2020/12/09 04:59:58;;;;;;;12.32;3.75;;;;;;;;;;5050188;28;20088;-54
2020/12/09 05:02:31;;;;;;;8.30;2.80;;;;;;;;;;5050187;28;20051;-56
2020/12/09 05:04:57;;;;;;;9.70;3.07;;;;;;;;;;5067110;28;20045;-56
2020/12/09 05:07:24;;;;;;;9.82;3.35;;;;;;;;;;5052038;28;20286;-54
2020/12/09 05:09:50;;;;;;;10.65;3.28;;;;;;;;;;5052502;28;20037;-55
2020/12/09 05:12:17;;;;;;;12.30;3.55;;;;;;;;;;5051639;28;20068;-54
2020/12/09 05:14:47;;;;;;;11.45;3.58;;;;;;;;;;5050046;28;20057;-54
2020/12/09 05:17:21;;;;;;;10.10;3.47;;;;;;;;;;5052169;28;20081;-54
2020/12/09 05:19:48;;;;;;;8.38;3.10;;;;;;;;;;5050698;28;20052;-54
2020/12/09 05:22:16;;;;;;;8.80;3.58;;;;;;;;;;5051772;28;20583;-52
2020/12/09 05:24:42;;;;;;;11.43;3.40;;;;;;;;;;5050661;28;20037;-52
2020/12/09 05:27:08;;;;;;;6.95;2.38;;;;;;;;;;5052075;28;20033;-53
2020/12/09 05:29:34;;;;;;;6.95;1.80;;;;;;;;;;5050433;28;20061;-51
2020/12/09 05:32:01;;;;;;;3.75;1.50;;;;;;;;;;5051979;28;20117;-53
2020/12/09 05:34:28;;;;;;;3.20;1.30;;;;;;;;;;5050856;28;20147;-55
2020/12/09 05:36:58;;;;;;;5.28;1.00;;;;;;;;;;5051049;28;20051;-55
2020/12/09 05:39:25;;;;;;;3.10;1.10;;;;;;;;;;5050475;28;20105;-51
2020/12/09 05:41:51;;;;;;;3.40;1.15;;;;;;;;;;5050955;28;20041;-54
2020/12/09 05:44:17;;;;;;;3.45;0.93;;;;;;;;;;5051604;28;20055;-52
2020/12/09 05:47:02;;;;;;;2.08;0.70;;;;;;;;;;5051607;28;20067;-52
2020/12/09 05:49:29;;;;;;;2.40;0.77;;;;;;;;;;5050810;28;22223;-54
2020/12/09 05:52:02;;;;;;;2.30;0.68;;;;;;;;;;5052486;28;20242;-56
2020/12/09 05:54:28;;;;;;;2.55;0.75;;;;;;;;;;5050288;28;20043;-56
2020/12/09 05:56:56;;;;;;;2.30;0.75;;;;;;;;;;5050451;28;20088;-57
2020/12/09 05:59:35;;;;;;;2.20;0.70;;;;;;;;;;5051675;28;20440;-58
2020/12/09 06:02:13;;;;;;;3.90;1.73;;;;;;;;;;5052071;28;20040;-56
2020/12/09 06:04:42;;;;;;;1.95;0.65;;;;;;;;;;5050456;28;20052;-53
2020/12/09 06:07:10;;;;;;;2.20;0.60;;;;;;;;;;5052096;28;20543;-54
2020/12/09 06:09:37;;;;;;;4.13;0.70;;;;;;;;;;5050788;28;20048;-51
2020/12/09 06:12:04;;;;;;;2.65;0.80;;;;;;;;;;5052938;28;20055;-49
2020/12/09 06:14:30;;;;;;;2.65;0.75;;;;;;;;;;5050755;28;20079;-50
2020/12/09 06:16:55;;;;;;;2.33;0.80;;;;;;;;;;5051241;28;20036;-52
2020/12/09 06:19:22;;;;;;;2.22;0.80;;;;;;;;;;5050814;28;20076;-54
2020/12/09 06:21:53;;;;;;;2.53;0.80;;;;;;;;;;5051768;28;20176;-53
2020/12/09 06:24:19;;;;;;;2.13;0.70;;;;;;;;;;5050426;28;20037;-52
2020/12/09 06:26:47;;;;;;;2.10;0.77;;;;;;;;;;5051945;28;20424;-52
2020/12/09 06:29:13;;;;;;;2.78;0.75;;;;;;;;;;5051611;28;20088;-53
2020/12/09 06:31:39;;;;;;;2.42;0.80;;;;;;;;;;5050481;28;20537;-51
2020/12/09 06:34:13;;;;;;;2.75;0.88;;;;;;;;;;5050733;28;20071;-53
2020/12/09 06:36:38;;;;;;;3.83;0.88;;;;;;;;;;5049909;28;21238;-54
2020/12/09 06:39:07;;;;;;;4.18;1.13;;;;;;;;;;5048059;28;20049;-50
2020/12/09 06:41:34;;;;;;;2.78;0.80;;;;;;;;;;5047629;28;20393;-51
2020/12/09 06:44:10;;;;;;;4.65;0.88;;;;;;;;;;5051672;28;20048;-52
2020/12/09 06:46:37;;;;;;;2.63;0.80;;;;;;;;;;5050662;28;20048;-53
2020/12/09 06:49:03;;;;;;;2.70;1.00;;;;;;;;;;5049248;28;20045;-50
2020/12/09 06:51:37;;;;;;;3.20;1.00;;;;;;;;;;5050346;28;20051;-53
2020/12/09 06:54:20;;;;;;;2.47;0.80;;;;;;;;;;5051449;28;20033;-52
2020/12/09 06:57:06;;;;;;;3.38;0.70;;;;;;;;;;5049307;28;20131;-50
2020/12/09 06:59:32;;;;;;;4.18;0.90;;;;;;;;;;5050101;28;20113;-54
2020/12/09 07:02:05;;;;;;;3.25;0.88;;;;;;;;;;5051538;28;20060;-53
2020/12/09 07:04:49;;;;;;;3.00;0.70;;;;;;;;;;5048847;28;20037;-54
2020/12/09 07:07:26;;;;;;;2.65;0.88;;;;;;;;;;5049604;28;20048;-52
2020/12/09 07:09:52;;;;;;;3.20;0.80;;;;;;;;;;5049761;28;20134;-52
2020/12/09 07:12:19;;;;;;;3.38;0.80;;;;;;;;;;5048321;28;20148;-55
2020/12/09 07:14:48;;;;;;;2.72;1.00;;;;;;;;;;5049933;28;20044;-52
2020/12/09 07:17:15;;;;;;;3.38;1.10;;;;;;;;;;5049886;28;20122;-55
2020/12/09 08:05:14;;;;;;;2.80;1.10;;;;;;;;;;4954228;23;20158;-55
2020/12/09 08:07:53;;;;;;;2.80;1.10;;;;;;;;;;4941887;28;20051;-58
2020/12/09 08:10:28;;;;;;;3.83;1.10;;;;;;;;;;4943808;28;20050;-58
2020/12/09 08:13:01;;;;;;;3.03;1.05;;;;;;;;;;4937673;29;20044;-58
2020/12/09 08:15:27;;;;;;;3.15;1.20;;;;;;;;;;4934822;29;20142;-58
2020/12/09 08:17:53;;;;;;;3.03;1.30;;;;;;;;;;4934770;29;20139;-58
2020/12/09 08:20:19;;;;;;;3.75;1.40;;;;;;;;;;4935085;29;20066;-57
2020/12/09 08:23:03;;;;;;;3.50;1.48;;;;;;;;;;4910486;29;20035;-60
2020/12/09 08:25:30;;;;;;;2.90;1.40;;;;;;;;;;4935807;29;20036;-58
2020/12/09 08:28:03;;;;;;;3.97;1.30;;;;;;;;;;4944556;29;20063;-58
2020/12/09 08:30:29;;;;;;;3.42;1.40;;;;;;;;;;4944533;29;20039;-57
2020/12/09 08:33:10;;;;;;;4.18;1.60;;;;;;;;;;4944030;29;20039;-59
2020/12/09 08:35:47;;;;;;;3.40;1.50;;;;;;;;;;4944148;28;20077;-59
2020/12/09 08:38:22;;;;;;;3.55;1.60;;;;;;;;;;4944425;29;20142;-60
2020/12/09 08:40:49;;;;;;;7.30;1.75;;;;;;;;;;4943583;29;20067;-59
2020/12/09 08:43:15;;;;;;;4.25;1.42;;;;;;;;;;4945534;29;20523;-59
2020/12/09 08:45:43;;;;;;;3.35;1.50;;;;;;;;;;4942656;29;20035;-57
2020/12/09 08:48:09;;;;;;;3.63;1.50;;;;;;;;;;4945251;28;20107;-58
2020/12/09 08:50:35;;;;;;;3.83;1.35;;;;;;;;;;4943628;29;20066;-60
2020/12/09 08:53:01;;;;;;;3.47;1.60;;;;;;;;;;4944721;28;20369;-57
2020/12/09 08:55:27;;;;;;;3.95;1.52;;;;;;;;;;4942679;29;20043;-58
2020/12/09 08:57:53;;;;;;;3.00;1.30;;;;;;;;;;4945246;29;20052;-58
2020/12/09 09:00:19;;;;;;;5.72;1.40;;;;;;;;;;4946374;29;20119;-59
2020/12/09 09:02:46;;;;;;;3.65;1.30;;;;;;;;;;4945377;29;20172;-55
2020/12/09 09:05:13;;;;;;;3.13;1.25;;;;;;;;;;4946234;28;20047;-60
2020/12/09 09:07:39;;;;;;;3.50;1.40;;;;;;;;;;4944480;29;20099;-57
2020/12/09 09:10:05;;;;;;;3.65;1.80;;;;;;;;;;4944752;29;20081;-57
2020/12/09 09:12:31;;;;;;;4.15;1.50;;;;;;;;;;4943559;28;20098;-57
2020/12/09 09:14:57;;;;;;;3.83;1.80;;;;;;;;;;4945295;29;20059;-57
2020/12/09 09:17:23;;;;;;;3.53;1.90;;;;;;;;;;4944048;29;20066;-57
2020/12/09 09:19:49;;;;;;;4.65;1.50;;;;;;;;;;4944595;28;21316;-57
2020/12/09 09:22:15;;;;;;;3.85;1.85;;;;;;;;;;4943702;28;20044;-57
2020/12/09 09:24:41;;;;;;;5.47;2.45;;;;;;;;;;4943292;29;20051;-56
2020/12/09 09:27:10;;;;;;;4.05;2.35;;;;;;;;;;4944976;28;20040;-58
2020/12/09 09:29:37;;;;;;;6.07;2.80;;;;;;;;;;4941625;28;20043;-57
2020/12/09 09:32:03;;;;;;;4.80;2.67;;;;;;;;;;4930771;29;20098;-60
2020/12/09 09:34:29;;;;;;;5.00;2.55;;;;;;;;;;4945225;29;20039;-58
2020/12/09 09:36:55;;;;;;;5.05;2.88;;;;;;;;;;4944805;28;20042;-59
2020/12/09 09:39:21;;;;;;;5.90;3.05;;;;;;;;;;4946036;28;20098;-58
2020/12/09 09:41:47;;;;;;;7.15;3.88;;;;;;;;;;4944128;29;20042;-58
2020/12/09 09:44:12;;;;;;;7.45;4.20;;;;;;;;;;4944440;29;20078;-58
2020/12/09 09:46:40;;;;;;;5.15;3.28;;;;;;;;;;4945741;29;20044;-58
2020/12/09 09:49:06;;;;;;;7.53;3.42;;;;;;;;;;4944903;29;20043;-58
2020/12/09 09:51:32;;;;;;;4.95;3.00;;;;;;;;;;4944897;28;20047;-55
2020/12/09 09:53:58;;;;;;;5.07;2.47;;;;;;;;;;4943901;29;20049;-58
2020/12/09 09:56:24;;;;;;;4.93;2.50;;;;;;;;;;4945977;29;20063;-59
2020/12/09 09:58:50;;;;;;;4.18;2.45;;;;;;;;;;4945920;29;20047;-57
2020/12/09 10:01:16;;;;;;;5.85;3.60;;;;;;;;;;4943951;29;20071;-57
2020/12/09 10:03:42;;;;;;;4.55;1.48;;;;;;;;;;4942404;28;20040;-57
2020/12/09 10:06:08;;;;;;;3.33;1.77;;;;;;;;;;4943546;29;20059;-58
2020/12/09 10:08:34;;;;;;;5.30;3.13;;;;;;;;;;4927608;29;20078;-57
2020/12/09 10:11:01;;;;;;;4.63;2.30;;;;;;;;;;4944848;29;20585;-58
2020/12/09 10:13:27;;;;;;;5.47;2.92;;;;;;;;;;4945402;28;20043;-58
2020/12/09 10:15:53;;;;;;;3.90;2.17;;;;;;;;;;4942164;28;20047;-60
2020/12/09 10:18:19;;;;;;;3.78;1.95;;;;;;;;;;4943120;29;20059;-59
2020/12/09 10:20:45;;;;;;;5.50;3.35;;;;;;;;;;4944154;29;20035;-57
2020/12/09 10:23:11;;;;;;;5.32;3.08;;;;;;;;;;4925594;29;20054;-57
2020/12/09 10:25:37;;;;;;;6.07;3.70;;;;;;;;;;4944505;29;20039;-57
2020/12/09 10:28:03;;;;;;;5.65;3.70;;;;;;;;;;4943874;29;20047;-58
2020/12/09 10:30:29;;;;;;;7.10;3.38;;;;;;;;;;4932139;29;20050;-57
2020/12/09 10:32:54;;;;;;;6.88;4.35;;;;;;;;;;4942980;29;20381;-57
2020/12/09 10:35:20;;;;;;;8.75;4.20;;;;;;;;;;4943352;29;20078;-58
2020/12/09 10:37:46;;;;;;;5.72;3.45;;;;;;;;;;4944471;29;20046;-59
2020/12/09 10:40:12;;;;;;;4.05;2.03;;;;;;;;;;4942894;29;20039;-58
2020/12/09 10:42:38;;;;;;;3.78;2.17;;;;;;;;;;4925767;29;20045;-58
2020/12/09 10:45:04;;;;;;;5.57;2.88;;;;;;;;;;4929629;29;20130;-57
2020/12/09 10:47:32;;;;;;;4.75;2.80;;;;;;;;;;4943149;29;20051;-57
2020/12/09 10:49:58;;;;;;;3.53;1.95;;;;;;;;;;4927190;29;20090;-59
2020/12/09 10:52:25;;;;;;;2.70;1.10;;;;;;;;;;4941682;28;20040;-58
2020/12/09 10:54:51;;;;;;;3.75;1.80;;;;;;;;;;4943209;29;20043;-63
2020/12/09 10:57:17;;;;;;;3.58;1.20;;;;;;;;;;4943228;29;20051;-58
2020/12/09 10:59:43;;;;;;;4.00;1.90;;;;;;;;;;4925652;29;20047;-58
2020/12/09 11:02:10;;;;;;;3.35;1.40;;;;;;;;;;4942148;29;20036;-59
2020/12/09 11:04:36;;;;;;;4.97;0.93;;;;;;;;;;4942825;29;20051;-58
2020/12/09 11:07:06;;;;;;;2.15;0.85;;;;;;;;;;4942387;29;20044;-57
2020/12/09 11:09:32;;;;;;;3.03;1.33;;;;;;;;;;4941681;29;20055;-57
2020/12/09 11:11:58;;;;;;;2.85;1.35;;;;;;;;;;4942038;29;20047;-59
2020/12/09 11:14:24;;;;;;;3.70;1.10;;;;;;;;;;4940826;29;20039;-56
2020/12/09 11:16:49;;;;;;;1.45;0.60;;;;;;;;;;4945223;29;20046;-58
2020/12/09 11:19:15;;;;;;;3.63;1.40;;;;;;;;;;4942546;29;20445;-57
2020/12/09 11:21:42;;;;;;;3.47;1.20;;;;;;;;;;4941481;29;20055;-58
2020/12/09 11:24:08;;;;;;;2.80;1.27;;;;;;;;;;4945365;29;20039;-57
2020/12/09 11:26:34;;;;;;;2.63;1.08;;;;;;;;;;4944507;28;20039;-56
2020/12/09 11:29:00;;;;;;;3.22;1.50;;;;;;;;;;4927034;29;20054;-59
2020/12/09 11:31:25;;;;;;;4.00;1.45;;;;;;;;;;4947812;29;20043;-58
2020/12/09 11:33:51;;;;;;;2.63;1.10;;;;;;;;;;4945982;29;20222;-60
2020/12/09 11:36:22;;;;;;;2.05;0.75;;;;;;;;;;4946401;29;20036;-58
2020/12/09 11:38:47;;;;;;;2.40;0.82;;;;;;;;;;4940925;29;22293;-59
2020/12/09 11:41:14;;;;;;;2.42;0.93;;;;;;;;;;4945788;29;20160;-59
2020/12/09 11:43:44;;;;;;;3.10;1.30;;;;;;;;;;4947250;29;20050;-59
2020/12/09 11:46:10;;;;;;;2.38;0.88;;;;;;;;;;4947766;29;20058;-58
2020/12/09 11:48:37;;;;;;;2.30;0.85;;;;;;;;;;4947803;29;20066;-58
2020/12/09 11:51:03;;;;;;;2.78;1.10;;;;;;;;;;4931043;29;20074;-58
2020/12/09 11:53:29;;;;;;;2.47;0.90;;;;;;;;;;4945910;29;20044;-59
2020/12/09 11:55:55;;;;;;;2.50;0.90;;;;;;;;;;4948552;29;20081;-59
2020/12/09 11:58:20;;;;;;;1.83;0.70;;;;;;;;;;4948624;29;20043;-58
2020/12/09 12:00:46;;;;;;;2.35;0.75;;;;;;;;;;4947471;29;20046;-59
2020/12/09 12:03:12;;;;;;;1.88;0.68;;;;;;;;;;4949845;29;20779;-61
2020/12/09 12:05:40;;;;;;;2.58;1.10;;;;;;;;;;4948341;29;20482;-58
2020/12/09 12:08:06;;;;;;;2.45;0.90;;;;;;;;;;4949106;29;20051;-59
2020/12/09 12:10:33;;;;;;;2.20;0.70;;;;;;;;;;4947754;29;20044;-58
2020/12/09 12:12:59;;;;;;;2.22;0.80;;;;;;;;;;4946980;29;20039;-58
2020/12/09 12:15:25;;;;;;;2.85;1.00;;;;;;;;;;4934199;29;20219;-58
2020/12/09 12:17:51;;;;;;;2.40;0.90;;;;;;;;;;4948681;29;20827;-57
2020/12/09 12:20:17;;;;;;;3.05;0.70;;;;;;;;;;4936040;29;20027;-58
2020/12/09 12:22:42;;;;;;;2.13;0.70;;;;;;;;;;4948978;29;20675;-59
2020/12/09 12:25:08;;;;;;;2.13;0.57;;;;;;;;;;4947685;29;20043;-59
2020/12/09 12:27:34;;;;;;;2.13;0.77;;;;;;;;;;4930043;29;20107;-58
2020/12/09 12:30:00;;;;;;;2.47;0.75;;;;;;;;;;4947930;29;20086;-59
2020/12/09 12:32:26;;;;;;;2.50;0.82;;;;;;;;;;4947320;29;20103;-64
2020/12/09 12:34:52;;;;;;;2.60;1.00;;;;;;;;;;4948072;29;20046;-57
2020/12/09 12:37:17;;;;;;;2.53;0.80;;;;;;;;;;4946257;28;20062;-62
2020/12/09 12:39:43;;;;;;;1.65;0.60;;;;;;;;;;4945515;29;20079;-58
2020/12/09 12:42:09;;;;;;;4.82;1.15;;;;;;;;;;4948282;29;20154;-58
2020/12/09 12:44:35;;;;;;;2.85;1.17;;;;;;;;;;4946691;28;20170;-60
2020/12/09 12:47:01;;;;;;;2.72;1.05;;;;;;;;;;4950214;29;20094;-56
2020/12/09 12:49:27;;;;;;;2.75;1.25;;;;;;;;;;4946490;29;21985;-56
2020/12/09 12:51:56;;;;;;;2.22;0.80;;;;;;;;;;4947622;29;20107;-58
2020/12/09 12:54:22;;;;;;;4.30;1.00;;;;;;;;;;4945692;29;20046;-60
2020/12/09 12:56:48;;;;;;;1.95;0.77;;;;;;;;;;4951416;29;20043;-58
2020/12/09 12:59:14;;;;;;;3.08;1.20;;;;;;;;;;4946956;29;20073;-59
2020/12/09 13:01:40;;;;;;;3.95;1.33;;;;;;;;;;4947471;29;20043;-57
2020/12/09 13:04:05;;;;;;;4.00;1.73;;;;;;;;;;4934852;29;20102;-57
2020/12/09 13:06:31;;;;;;;3.55;1.30;;;;;;;;;;4946033;29;20062;-58
2020/12/09 13:08:57;;;;;;;2.53;0.90;;;;;;;;;;4948184;29;20036;-60
2020/12/09 13:11:23;;;;;;;3.75;1.40;;;;;;;;;;4936054;29;20109;-56
2020/12/09 13:13:49;;;;;;;2.55;0.88;;;;;;;;;;4949460;29;20094;-58
2020/12/09 13:16:15;;;;;;;2.75;1.05;;;;;;;;;;4948662;29;20134;-56
2020/12/09 13:18:40;;;;;;;3.63;1.38;;;;;;;;;;4947971;28;20039;-57
2020/12/09 13:21:07;;;;;;;2.30;0.90;;;;;;;;;;4948136;29;20039;-58
2020/12/09 13:23:32;;;;;;;3.10;1.20;;;;;;;;;;4946495;29;20039;-58
2020/12/09 13:25:58;;;;;;;3.67;1.30;;;;;;;;;;4949671;29;20047;-56
2020/12/09 13:28:24;;;;;;;2.92;1.25;;;;;;;;;;4948237;29;20059;-57
2020/12/09 13:30:50;;;;;;;3.70;1.60;;;;;;;;;;4946731;29;20039;-60
2020/12/09 13:33:16;;;;;;;3.92;1.90;;;;;;;;;;4947828;29;20396;-59
2020/12/09 13:35:43;;;;;;;3.35;1.30;;;;;;;;;;4948433;29;20035;-58
2020/12/09 13:38:08;;;;;;;6.25;1.58;;;;;;;;;;4945524;29;20113;-58
2020/12/09 13:40:35;;;;;;;3.15;1.10;;;;;;;;;;4946992;29;20579;-58
2020/12/09 13:43:01;;;;;;;2.35;1.05;;;;;;;;;;4945799;29;20050;-58
2020/12/09 13:45:27;;;;;;;4.00;1.70;;;;;;;;;;4947389;29;20095;-56
2020/12/09 13:47:52;;;;;;;3.47;0.73;;;;;;;;;;4943000;29;20046;-60
2020/12/09 13:50:18;;;;;;;7.22;1.58;;;;;;;;;;4944997;28;20107;-63
2020/12/09 13:52:44;;;;;;;4.05;1.33;;;;;;;;;;4935897;29;20394;-58
2020/12/09 13:55:10;;;;;;;2.80;1.10;;;;;;;;;;4946230;28;20040;-56
2020/12/09 13:57:36;;;;;;;4.10;1.20;;;;;;;;;;4944991;28;20062;-59
2020/12/09 14:00:03;;;;;;;3.80;1.20;;;;;;;;;;4945331;28;20034;-57
2020/12/09 14:02:29;;;;;;;2.95;1.27;;;;;;;;;;4946224;28;20074;-58
2020/12/09 14:04:55;;;;;;;3.13;1.45;;;;;;;;;;4949466;28;20062;-57
2020/12/09 14:07:21;;;;;;;2.03;0.80;;;;;;;;;;4958902;28;20118;-59
2020/12/09 14:09:46;;;;;;;4.22;1.60;;;;;;;;;;4947856;28;20047;-56
2020/12/09 14:12:12;;;;;;;2.90;1.33;;;;;;;;;;4959760;28;20047;-58
2020/12/09 14:14:38;;;;;;;3.50;1.50;;;;;;;;;;4948711;28;20094;-57
2020/12/09 14:17:07;;;;;;;3.38;1.38;;;;;;;;;;4961802;28;20097;-60
2020/12/09 14:19:35;;;;;;;2.80;0.88;;;;;;;;;;4960610;28;20043;-57
2020/12/09 14:22:01;;;;;;;4.15;1.60;;;;;;;;;;4964220;28;20094;-57
2020/12/09 14:24:29;;;;;;;5.00;1.55;;;;;;;;;;4962654;28;20042;-58
2020/12/09 14:26:55;;;;;;;4.88;1.70;;;;;;;;;;4962914;28;20055;-60
2020/12/09 14:29:21;;;;;;;4.10;1.88;;;;;;;;;;4962424;28;20031;-57
2020/12/09 14:31:51;;;;;;;4.90;1.58;;;;;;;;;;4963828;28;20055;-58
2020/12/09 14:34:17;;;;;;;3.50;1.15;;;;;;;;;;4962949;28;20070;-58
2020/12/09 14:36:50;;;;;;;5.28;2.00;;;;;;;;;;4962255;28;20145;-58
2020/12/09 14:39:17;;;;;;;3.07;1.47;;;;;;;;;;4962579;28;20050;-57
2020/12/09 14:41:46;;;;;;;4.20;1.65;;;;;;;;;;4960809;28;20782;-56
2020/12/09 14:44:13;;;;;;;3.88;1.75;;;;;;;;;;4943339;28;20034;-58
2020/12/09 14:46:43;;;;;;;4.22;1.90;;;;;;;;;;4950278;28;20050;-57
2020/12/09 14:49:10;;;;;;;4.15;2.38;;;;;;;;;;4942212;28;20073;-56
2020/12/09 14:51:43;;;;;;;5.38;2.10;;;;;;;;;;4964209;28;20047;-59
2020/12/09 14:54:10;;;;;;;5.05;2.25;;;;;;;;;;4965026;28;20039;-58
2020/12/09 14:56:36;;;;;;;5.05;2.38;;;;;;;;;;4961189;28;20046;-59
2020/12/09 14:59:02;;;;;;;5.95;2.70;;;;;;;;;;4965837;28;20050;-57
2020/12/09 15:01:28;;;;;;;5.22;2.80;;;;;;;;;;4949549;28;20039;-57
2020/12/09 15:03:54;;;;;;;6.32;3.15;;;;;;;;;;4962709;28;20684;-59
2020/12/09 15:06:20;;;;;;;5.72;2.97;;;;;;;;;;4949180;28;20557;-58
2020/12/09 15:08:46;;;;;;;7.20;3.33;;;;;;;;;;4941150;28;20038;-57
2020/12/09 15:11:19;;;;;;;12.57;4.05;;;;;;;;;;4960219;28;20046;-57
2020/12/09 15:13:45;;;;;;;7.53;4.30;;;;;;;;;;4959330;28;20756;-58
2020/12/09 15:16:12;;;;;;;8.82;4.03;;;;;;;;;;4953955;28;20026;-57
2020/12/09 15:18:38;;;;;;;10.10;4.60;;;;;;;;;;4957402;28;20057;-57
2020/12/09 15:21:04;;;;;;;10.88;4.72;;;;;;;;;;4957514;28;20034;-58
2020/12/09 15:23:30;;;;;;;8.75;4.40;;;;;;;;;;4957897;28;20450;-58
2020/12/09 15:25:55;;;;;;;11.93;5.15;;;;;;;;;;4959465;28;20105;-57
2020/12/09 15:28:21;;;;;;;11.00;4.82;;;;;;;;;;4958491;28;20067;-57